Time;durP1;ratioP1;P1;durP2;ratioP2;P2;SDS_P1;SDS_P2;PMS_P1;PMS_P2;Temp;Humidity;BMP_temperature;BMP_pressure;BME280_temperature;BME280_humidity;BME280_pressure;Samples;Min_cycle;Max_cycle;Signal;HPM_P1;HPM_P2
2023/12/16 00:00:42;;;;;;;4.03;1.87;;;;;;;7.07;100.00;103072.31;2089405;28;20418;-67
2023/12/16 00:01:43;;;;;;;2.63;1.63;;;;;;;6.95;100.00;103073.13;2089585;28;20267;-67
2023/12/16 00:02:44;;;;;;;3.00;2.00;;;;;;;6.90;100.00;103067.88;2097387;28;20929;-67
2023/12/16 00:03:45;;;;;;;2.97;1.97;;;;;;;6.29;100.00;102980.16;2090137;28;20202;-67
2023/12/16 00:04:45;;;;;;;2.53;1.80;;;;;;;6.80;100.00;103068.34;2095938;28;20425;-67
2023/12/16 00:05:47;;;;;;;2.97;1.70;;;;;;;6.79;100.00;103069.50;2097474;28;20226;-67
2023/12/16 00:06:48;;;;;;;3.33;1.40;;;;;;;6.83;100.00;103069.59;2092421;28;20207;-67
2023/12/16 00:07:48;;;;;;;2.80;1.70;;;;;;;6.88;100.00;103069.38;2088057;28;20499;-67
2023/12/16 00:08:49;;;;;;;3.20;1.83;;;;;;;6.75;100.00;103093.38;2096757;28;20734;-67
2023/12/16 00:09:50;;;;;;;2.93;1.67;;;;;;;6.66;100.00;103056.88;2089968;28;20652;-67
2023/12/16 00:10:51;;;;;;;4.13;1.87;;;;;;;6.80;100.00;103084.06;2097628;28;20172;-67
2023/12/16 00:11:52;;;;;;;2.73;1.83;;;;;;;6.83;100.00;103083.38;2097809;28;20416;-67
2023/12/16 00:12:52;;;;;;;3.30;2.00;;;;;;;6.84;100.00;103083.03;2097334;28;20229;-67
2023/12/16 00:13:53;;;;;;;3.43;1.60;;;;;;;6.76;100.00;103083.97;2096712;28;20221;-67
2023/12/16 00:14:53;;;;;;;3.33;2.00;;;;;;;6.74;100.00;103090.97;2096786;28;20576;-67
2023/12/16 00:15:54;;;;;;;2.87;1.47;;;;;;;6.71;100.00;103086.19;2089343;28;20278;-67
2023/12/16 00:16:54;;;;;;;2.80;1.63;;;;;;;5.98;100.00;102983.53;2089286;28;20745;-67
2023/12/16 00:17:55;;;;;;;4.33;2.03;;;;;;;6.77;100.00;103087.53;2090409;28;20210;-67
2023/12/16 00:18:55;;;;;;;2.90;1.73;;;;;;;6.80;100.00;103092.34;2097005;28;20178;-68
2023/12/16 00:19:56;;;;;;;2.77;1.53;;;;;;;6.75;100.00;103087.88;2094451;28;20179;-67
2023/12/16 00:20:56;;;;;;;3.27;1.50;;;;;;;6.77;100.00;103087.53;2097427;28;20186;-67
2023/12/16 00:21:57;;;;;;;2.13;1.50;;;;;;;6.74;100.00;103094.53;2097585;28;20190;-67
2023/12/16 00:22:58;;;;;;;4.77;1.37;;;;;;;6.22;100.00;103024.00;2096944;28;20180;-67
2023/12/16 00:23:58;;;;;;;4.83;1.90;;;;;;;6.75;100.00;103096.16;2093349;28;20203;-67
2023/12/16 00:24:59;;;;;;;2.47;1.60;;;;;;;6.83;100.00;103099.94;2092163;28;20181;-67
2023/12/16 00:26:00;;;;;;;3.27;1.97;;;;;;;6.88;100.00;103096.94;2095609;28;20168;-67
2023/12/16 00:27:00;;;;;;;2.40;1.73;;;;;;;6.88;100.00;103081.16;2089104;28;20458;-68
2023/12/16 00:28:01;;;;;;;2.07;1.50;;;;;;;6.94;100.00;103090.03;2097035;28;20222;-67
2023/12/16 00:29:01;;;;;;;3.17;1.77;;;;;;;6.93;100.00;103096.69;2090261;28;20191;-67
2023/12/16 00:30:02;;;;;;;3.00;1.90;;;;;;;6.34;100.00;102994.50;2094997;28;20193;-67
2023/12/16 00:31:03;;;;;;;2.80;1.50;;;;;;;6.99;100.00;103093.34;2097285;28;20194;-67
2023/12/16 00:32:03;;;;;;;2.77;1.70;;;;;;;6.99;100.00;103098.88;2097435;28;20469;-67
2023/12/16 00:33:04;;;;;;;2.87;1.87;;;;;;;6.90;100.00;103105.66;2097566;28;20251;-67
2023/12/16 00:34:05;;;;;;;2.53;1.67;;;;;;;6.87;100.00;103109.13;2097226;28;20742;-67
2023/12/16 00:35:09;;;;;;;2.57;1.60;;;;;;;6.84;100.00;103102.34;2097461;28;20164;-67
2023/12/16 00:36:10;;;;;;;2.80;1.63;;;;;;;6.82;100.00;103104.63;2089280;28;20263;-67
2023/12/16 00:37:10;;;;;;;3.27;2.07;;;;;;;6.85;100.00;103103.94;2096971;28;20440;-67
2023/12/16 00:38:11;;;;;;;2.63;1.83;;;;;;;6.94;100.00;103110.13;2089940;28;20190;-67
2023/12/16 00:39:12;;;;;;;2.47;1.67;;;;;;;6.51;100.00;103040.28;2089089;28;20278;-67
2023/12/16 00:40:12;;;;;;;3.47;1.87;;;;;;;6.58;100.00;103051.50;2092810;28;20175;-67
2023/12/16 00:41:13;;;;;;;2.90;1.77;;;;;;;6.89;100.00;103104.84;2094006;28;20265;-67
2023/12/16 00:42:13;;;;;;;2.87;1.70;;;;;;;6.88;100.00;103102.44;2088950;28;20713;-67
2023/12/16 00:43:14;;;;;;;2.90;1.53;;;;;;;6.81;100.00;103102.25;2089047;28;20411;-67
2023/12/16 00:44:15;;;;;;;2.47;1.70;;;;;;;6.40;100.00;103039.16;2088753;28;20288;-67
2023/12/16 00:45:15;;;;;;;2.87;1.60;;;;;;;6.84;100.00;103109.78;2089426;28;20177;-67
2023/12/16 00:46:16;;;;;;;3.40;2.07;;;;;;;6.36;100.00;103028.00;2095652;28;20296;-68
2023/12/16 00:47:16;;;;;;;2.47;1.50;;;;;;;7.00;100.00;103116.19;2091588;28;20658;-68
2023/12/16 00:48:17;;;;;;;2.67;1.60;;;;;;;6.65;100.00;103076.50;2093666;28;20212;-68
2023/12/16 00:49:17;;;;;;;2.63;1.93;;;;;;;7.04;100.00;103119.88;2093630;28;20192;-68
2023/12/16 00:50:18;;;;;;;2.80;1.60;;;;;;;7.08;100.00;103129.84;2089100;28;20183;-68
2023/12/16 00:51:21;;;;;;;2.20;1.53;;;;;;;7.11;100.00;103129.16;2090599;28;20361;-67
2023/12/16 00:52:22;;;;;;;3.20;1.67;;;;;;;6.60;100.00;103040.94;2096368;28;20217;-68
2023/12/16 00:53:23;;;;;;;3.20;1.73;;;;;;;7.11;100.00;103131.09;2088574;28;20421;-67
2023/12/16 00:54:24;;;;;;;2.20;1.60;;;;;;;7.11;100.00;103128.34;2096381;28;20181;-67
2023/12/16 00:55:24;;;;;;;3.10;2.03;;;;;;;7.12;100.00;103122.47;2097122;28;20198;-67
2023/12/16 00:56:25;;;;;;;2.93;1.80;;;;;;;7.16;100.00;103119.81;2097347;28;20317;-67
2023/12/16 00:57:25;;;;;;;2.53;1.60;;;;;;;6.62;100.00;103041.41;2096690;28;20620;-67
2023/12/16 00:58:26;;;;;;;2.63;1.70;;;;;;;7.13;100.00;103124.06;2097227;28;20183;-67
2023/12/16 00:59:26;;;;;;;3.03;1.67;;;;;;;7.10;100.00;103124.78;2097176;28;20684;-67
2023/12/16 01:00:27;;;;;;;3.20;1.67;;;;;;;6.85;100.00;103089.34;2096269;28;20777;-67
2023/12/16 01:01:27;;;;;;;2.73;1.87;;;;;;;7.13;100.00;103129.59;2089118;28;20176;-67
2023/12/16 01:02:27;;;;;;;3.30;2.23;;;;;;;6.68;100.00;103065.63;2088846;28;20267;-67
2023/12/16 01:03:28;;;;;;;3.03;1.87;;;;;;;7.15;100.00;103120.97;2096255;28;20189;-68
2023/12/16 01:04:28;;;;;;;2.60;1.70;;;;;;;7.16;100.00;103125.34;2091059;28;20207;-68
2023/12/16 01:05:29;;;;;;;5.00;1.63;;;;;;;6.99;100.00;103107.13;2093897;28;20275;-68
2023/12/16 01:06:29;;;;;;;2.73;1.87;;;;;;;7.13;100.00;103129.59;2097006;28;20191;-67
2023/12/16 01:07:30;;;;;;;2.07;1.50;;;;;;;6.77;100.00;103087.53;2094071;28;20175;-67
2023/12/16 01:08:30;;;;;;;3.50;1.97;;;;;;;6.82;100.00;103090.84;2090288;28;20562;-68
2023/12/16 01:09:31;;;;;;;2.77;1.77;;;;;;;6.98;100.00;103116.53;2097284;28;20686;-67
2023/12/16 01:10:31;;;;;;;3.27;1.90;;;;;;;7.06;100.00;103134.09;2097182;28;20182;-67
2023/12/16 01:11:32;;;;;;;3.03;1.90;;;;;;;7.01;100.00;103134.34;2090012;28;20190;-68
2023/12/16 01:12:32;;;;;;;3.03;1.87;;;;;;;6.98;100.00;103135.03;2088837;28;20226;-68
2023/12/16 01:13:33;;;;;;;2.83;1.63;;;;;;;6.98;100.00;103130.31;2089039;28;20185;-68
2023/12/16 01:14:33;;;;;;;3.33;2.13;;;;;;;6.96;100.00;103138.16;2092653;28;20186;-67
2023/12/16 01:15:35;;;;;;;3.87;2.10;;;;;;;6.94;100.00;103136.88;2094635;28;20195;-67
2023/12/16 01:16:36;;;;;;;3.20;2.10;;;;;;;6.89;100.00;103137.94;2088526;28;20746;-67
2023/12/16 01:17:36;;;;;;;3.13;1.80;;;;;;;6.82;100.00;103123.13;2088644;28;20858;-67
2023/12/16 01:18:37;;;;;;;3.30;2.00;;;;;;;6.53;100.00;103107.66;2089179;28;20242;-68
2023/12/16 01:19:37;;;;;;;3.17;2.10;;;;;;;6.75;100.00;103126.47;2088974;28;20210;-68
2023/12/16 01:20:38;;;;;;;3.10;2.03;;;;;;;6.39;100.00;103078.84;2088870;28;20208;-67
2023/12/16 01:21:42;;;;;;;3.03;2.03;;;;;;;6.44;100.00;103103.41;2093221;28;20818;-67
2023/12/16 01:22:42;;;;;;;2.97;1.83;;;;;;;6.49;100.00;103127.97;2095860;28;20186;-67
2023/12/16 01:23:43;;;;;;;3.40;2.07;;;;;;;6.54;100.00;103130.47;2097174;28;20934;-67
2023/12/16 01:24:43;;;;;;;3.33;2.20;;;;;;;6.50;100.00;103130.38;2095178;28;20314;-67
2023/12/16 01:25:44;;;;;;;2.93;1.90;;;;;;;6.41;100.00;103135.19;2089937;28;20610;-67
2023/12/16 01:26:45;;;;;;;3.93;2.40;;;;;;;5.85;100.00;103049.91;2097144;28;20653;-68
2023/12/16 01:27:47;;;;;;;3.27;2.07;;;;;;;6.37;100.00;103133.47;2088553;28;20190;-67
2023/12/16 01:28:47;;;;;;;4.33;2.20;;;;;;;6.41;100.00;103128.88;2088949;28;20457;-68
2023/12/16 01:29:48;;;;;;;3.27;2.07;;;;;;;6.37;100.00;103131.53;2089129;28;20932;-67
2023/12/16 01:30:48;;;;;;;3.67;2.20;;;;;;;6.47;100.00;103136.56;2094144;28;20688;-67
2023/12/16 01:31:49;;;;;;;4.43;2.40;;;;;;;5.96;100.00;103073.91;2093088;28;20245;-67
2023/12/16 01:32:50;;;;;;;3.90;2.37;;;;;;;6.47;100.00;103139.31;2088867;28;20182;-67
2023/12/16 01:33:51;;;;;;;3.83;2.40;;;;;;;5.98;100.00;103057.03;2088866;28;20168;-67
2023/12/16 01:34:51;;;;;;;3.93;2.33;;;;;;;6.50;100.00;103138.63;2103650;28;20178;-67
2023/12/16 01:35:52;;;;;;;4.03;2.50;;;;;;;6.17;100.00;103104.91;2097360;28;20443;-67
2023/12/16 01:36:52;;;;;;;3.77;2.37;;;;;;;6.51;100.00;103144.97;2089392;28;20187;-67
2023/12/16 01:37:53;;;;;;;5.23;2.33;;;;;;;6.08;100.00;103084.91;2096223;28;20769;-68
2023/12/16 01:38:53;;;;;;;2.97;2.03;;;;;;;6.57;100.00;103138.06;2091085;28;20549;-68
2023/12/16 01:39:54;;;;;;;3.73;2.30;;;;;;;6.53;100.00;103148.97;2093060;28;20183;-67
2023/12/16 01:40:54;;;;;;;3.70;2.50;;;;;;;6.57;100.00;103149.88;2094091;28;20197;-67
2023/12/16 01:41:55;;;;;;;3.60;2.30;;;;;;;6.59;100.00;103155.06;2088823;28;20195;-67
2023/12/16 01:42:55;;;;;;;5.13;2.57;;;;;;;6.48;100.00;103157.47;2088498;28;20182;-67
2023/12/16 01:43:56;;;;;;;2.87;2.00;;;;;;;6.46;100.00;103157.00;2089201;28;20174;-67
2023/12/16 01:44:57;;;;;;;3.50;2.27;;;;;;;6.46;100.00;103154.25;2088846;28;20263;-68
2023/12/16 01:46:03;;;;;;;2.73;1.97;;;;;;;6.50;100.00;103162.63;2088467;28;20190;-68
2023/12/16 01:47:05;;;;;;;3.53;2.60;;;;;;;6.46;100.00;103162.50;2095420;28;20465;-67
2023/12/16 01:48:07;;;;;;;3.03;1.93;;;;;;;6.02;100.00;103099.25;2091140;28;21012;-67
2023/12/16 01:49:08;;;;;;;2.80;1.93;;;;;;;6.37;100.00;103161.00;2093202;28;20431;-67
2023/12/16 01:50:10;;;;;;;3.28;2.00;;;;;;;6.05;100.00;103109.59;2093524;28;20525;-67
2023/12/16 01:51:11;;;;;;;3.63;2.20;;;;;;;5.75;100.00;103053.06;2091011;28;20170;-67
2023/12/16 01:52:12;;;;;;;4.37;2.17;;;;;;;6.41;100.00;103151.72;2095810;28;20455;-67
2023/12/16 01:53:12;;;;;;;3.70;2.20;;;;;;;6.42;100.00;103163.56;2088630;28;20230;-67
2023/12/16 01:54:13;;;;;;;3.70;2.00;;;;;;;6.36;100.00;103153.91;2089367;28;20201;-67
2023/12/16 01:55:14;;;;;;;3.50;2.30;;;;;;;5.89;100.00;103073.66;2097538;28;20182;-67
2023/12/16 01:56:15;;;;;;;3.90;2.15;;;;;;;6.47;100.00;103166.88;2092358;28;20195;-67
2023/12/16 01:57:16;;;;;;;3.63;2.27;;;;;;;6.45;100.00;103158.16;2090218;28;20259;-68
2023/12/16 01:58:17;;;;;;;3.10;1.97;;;;;;;6.55;100.00;103159.63;2093657;28;20185;-68
2023/12/16 01:59:17;;;;;;;3.27;1.93;;;;;;;6.53;100.00;103172.97;2098859;28;20428;-67
2023/12/16 02:00:20;;;;;;;2.43;1.77;;;;;;;6.50;100.00;103173.63;2096689;28;20184;-68
2023/12/16 02:01:21;;;;;;;3.00;2.07;;;;;;;6.51;100.00;103178.81;2090481;28;20259;-68
2023/12/16 02:02:24;;;;;;;3.63;1.97;;;;;;;6.45;100.00;103169.16;2090172;28;20414;-67
2023/12/16 02:03:27;;;;;;;2.77;2.17;;;;;;;6.13;100.00;103109.47;2090154;28;20674;-68
2023/12/16 02:04:27;;;;;;;3.60;1.90;;;;;;;6.54;100.00;103171.81;2097680;28;20582;-68
2023/12/16 02:05:28;;;;;;;2.73;1.80;;;;;;;6.55;100.00;103179.75;2098632;28;20182;-68
2023/12/16 02:06:29;;;;;;;3.83;2.23;;;;;;;5.94;100.00;103086.41;2092994;28;20282;-68
2023/12/16 02:07:29;;;;;;;2.93;1.70;;;;;;;5.94;100.00;103075.38;2093560;28;20662;-68
2023/12/16 02:08:30;;;;;;;3.13;1.90;;;;;;;6.47;100.00;103158.59;2098525;28;20261;-68
2023/12/16 02:09:31;;;;;;;3.23;2.10;;;;;;;5.91;100.00;103074.13;2098546;28;20562;-68
2023/12/16 02:10:31;;;;;;;3.00;2.00;;;;;;;6.62;100.00;103179.97;2097566;28;20254;-68
2023/12/16 02:11:32;;;;;;;2.47;1.63;;;;;;;6.50;100.00;103162.63;2090514;28;20233;-68
2023/12/16 02:12:35;;;;;;;2.97;2.00;;;;;;;6.66;100.00;103185.63;2097621;28;20193;-68
2023/12/16 02:13:37;;;;;;;3.30;1.90;;;;;;;6.39;100.00;103148.50;2097776;28;20192;-68
2023/12/16 02:14:37;;;;;;;3.20;2.08;;;;;;;5.90;100.00;103055.97;2091753;28;20449;-68
2023/12/16 02:15:38;;;;;;;3.53;1.90;;;;;;;6.67;100.00;103187.22;2095121;28;20197;-68
2023/12/16 02:16:38;;;;;;;2.83;1.83;;;;;;;6.69;100.00;103184.91;2098124;28;20674;-68
2023/12/16 02:17:39;;;;;;;2.83;1.87;;;;;;;6.72;100.00;103192.50;2097746;28;20177;-68
2023/12/16 02:18:39;;;;;;;2.33;1.50;;;;;;;6.73;100.00;103197.69;2096736;28;20182;-68
2023/12/16 02:19:46;;;;;;;3.20;1.70;;;;;;;6.72;100.00;103198.00;2093072;28;20680;-68
2023/12/16 02:20:46;;;;;;;3.27;1.80;;;;;;;6.73;100.00;103188.59;2098642;28;20280;-68
2023/12/16 02:21:47;;;;;;;2.67;1.77;;;;;;;6.71;100.00;103199.16;2090430;28;20579;-68
2023/12/16 02:22:48;;;;;;;2.73;1.70;;;;;;;6.67;100.00;103201.78;2096994;28;20199;-68
2023/12/16 02:23:48;;;;;;;2.73;1.67;;;;;;;6.54;100.00;103172.63;2092468;28;20192;-68
2023/12/16 02:24:50;;;;;;;3.07;1.70;;;;;;;6.29;100.00;103145.38;2094996;28;20953;-67
2023/12/16 02:25:51;;;;;;;2.63;1.63;;;;;;;6.66;100.00;103202.16;2094443;28;20199;-67
2023/12/16 02:26:51;;;;;;;2.60;1.70;;;;;;;6.63;100.00;103198.13;2092722;28;20475;-67
2023/12/16 02:27:52;;;;;;;3.40;2.00;;;;;;;6.63;100.00;103205.56;2096519;28;20236;-67
2023/12/16 02:28:52;;;;;;;2.93;1.93;;;;;;;6.55;100.00;103199.03;2090167;28;20179;-67
2023/12/16 02:29:53;;;;;;;2.07;1.23;;;;;;;6.59;100.00;103201.91;2090464;28;20191;-67
2023/12/16 02:30:53;;;;;;;2.23;1.57;;;;;;;6.59;100.00;103210.97;2090034;28;20209;-67
2023/12/16 02:31:54;;;;;;;1.87;1.37;;;;;;;6.22;100.00;103153.41;2090315;28;20193;-68
2023/12/16 02:32:56;;;;;;;3.67;1.83;;;;;;;6.56;100.00;103210.88;2089684;28;20181;-68
2023/12/16 02:33:57;;;;;;;4.15;1.70;;;;;;;6.57;100.00;103204.19;2090098;28;20570;-68
2023/12/16 02:34:57;;;;;;;4.13;2.00;;;;;;;6.58;100.00;103219.59;2089994;28;20175;-68
2023/12/16 02:36:00;;;;;;;1.80;1.37;;;;;;;6.58;100.00;103214.06;2091259;28;20613;-68
2023/12/16 02:37:05;;;;;;;2.40;1.53;;;;;;;6.57;100.00;103216.00;2097803;28;20566;-67
2023/12/16 02:38:06;;;;;;;2.57;1.77;;;;;;;6.04;100.00;103140.97;2088620;28;20424;-67
2023/12/16 02:39:06;;;;;;;2.97;1.53;;;;;;;6.50;100.00;103210.28;2098020;28;20496;-67
2023/12/16 02:40:08;;;;;;;3.63;1.80;;;;;;;6.54;100.00;103211.19;2098261;28;20186;-67
2023/12/16 02:41:08;;;;;;;2.53;1.40;;;;;;;6.54;100.00;103216.72;2092271;28;20197;-67
2023/12/16 02:42:09;;;;;;;2.17;1.43;;;;;;;6.47;100.00;103201.88;2095112;28;20418;-67
2023/12/16 02:43:09;;;;;;;2.73;1.40;;;;;;;6.55;100.00;103214.75;2094235;28;20186;-68
2023/12/16 02:44:10;;;;;;;3.37;1.97;;;;;;;6.54;100.00;103215.88;2092105;28;20310;-68
2023/12/16 02:45:11;;;;;;;2.63;1.70;;;;;;;6.51;100.00;103213.84;2098430;28;20177;-68
2023/12/16 02:46:11;;;;;;;2.20;1.67;;;;;;;6.47;100.00;103212.91;2097675;28;20177;-67
2023/12/16 02:47:11;;;;;;;2.20;1.27;;;;;;;6.50;100.00;103212.22;2097669;28;20222;-67
2023/12/16 02:48:12;;;;;;;3.23;1.60;;;;;;;6.53;100.00;103217.88;2097116;28;20184;-67
2023/12/16 02:49:12;;;;;;;2.87;1.80;;;;;;;6.56;100.00;103222.66;2092490;28;20220;-67
2023/12/16 02:50:13;;;;;;;2.33;1.57;;;;;;;6.42;100.00;103202.13;2094870;28;20175;-67
2023/12/16 02:51:20;;;;;;;2.53;1.60;;;;;;;6.51;100.00;103211.09;2097651;28;20705;-67
2023/12/16 02:52:20;;;;;;;2.60;1.70;;;;;;;6.59;100.00;103218.44;2088839;28;20279;-67
2023/12/16 02:53:21;;;;;;;3.33;1.93;;;;;;;6.45;100.00;103213.25;2091486;28;20416;-67
2023/12/16 02:54:21;;;;;;;2.83;1.53;;;;;;;6.47;100.00;103221.97;2097981;28;20178;-67
2023/12/16 02:55:22;;;;;;;2.83;1.67;;;;;;;6.41;100.00;103220.59;2098292;28;20186;-67
2023/12/16 02:56:22;;;;;;;2.90;1.70;;;;;;;6.43;100.00;103225.75;2089986;28;20267;-67
2023/12/16 02:57:23;;;;;;;2.57;1.60;;;;;;;6.45;100.00;103228.97;2096513;28;20180;-67
2023/12/16 02:58:24;;;;;;;3.23;2.13;;;;;;;6.47;100.00;103226.69;2091736;28;20676;-67
2023/12/16 02:59:24;;;;;;;3.73;1.73;;;;;;;6.44;100.00;103222.66;2090028;28;20421;-68
2023/12/16 03:00:25;;;;;;;3.20;1.93;;;;;;;6.51;100.00;103231.16;2093365;28;20568;-67
2023/12/16 03:01:25;;;;;;;3.63;2.00;;;;;;;6.14;100.00;103171.66;2095342;28;20178;-67
2023/12/16 03:02:26;;;;;;;2.70;1.60;;;;;;;6.13;100.00;103181.06;2089618;28;20790;-68
2023/12/16 03:03:26;;;;;;;3.67;2.20;;;;;;;6.31;100.00;103206.47;2090144;28;20775;-67
2023/12/16 03:04:27;;;;;;;2.80;2.10;;;;;;;6.02;100.00;103151.53;2089913;28;20602;-68
2023/12/16 03:05:27;;;;;;;3.27;1.77;;;;;;;6.48;100.00;103228.28;2096862;28;20652;-67
2023/12/16 03:06:28;;;;;;;3.60;2.13;;;;;;;6.51;100.00;103233.13;2092078;28;20262;-67
2023/12/16 03:07:29;;;;;;;3.00;1.90;;;;;;;6.43;100.00;103234.00;2088966;28;20210;-67
2023/12/16 03:08:29;;;;;;;3.47;1.60;;;;;;;6.45;100.00;103242.72;2093263;28;20213;-67
2023/12/16 03:09:30;;;;;;;4.10;2.30;;;;;;;6.43;100.00;103245.03;2095696;28;20198;-67
2023/12/16 03:10:30;;;;;;;3.83;1.97;;;;;;;6.48;100.00;103239.31;2089730;28;20179;-68
2023/12/16 03:11:31;;;;;;;4.03;2.40;;;;;;;6.55;100.00;103248.63;2089058;28;20174;-68
2023/12/16 03:12:31;;;;;;;2.83;1.90;;;;;;;6.34;100.00;103211.28;2080670;28;20191;-67
2023/12/16 03:13:32;;;;;;;3.03;2.00;;;;;;;6.58;100.00;103247.94;2088086;28;20692;-68
2023/12/16 03:14:34;;;;;;;4.10;2.07;;;;;;;5.92;100.00;103139.03;2091152;28;20322;-68
2023/12/16 03:15:34;;;;;;;2.93;2.13;;;;;;;6.48;100.00;103220.03;2102731;28;20412;-68
2023/12/16 03:16:35;;;;;;;3.87;2.00;;;;;;;6.62;100.00;103242.56;2101574;28;20498;-68
2023/12/16 03:17:35;;;;;;;3.37;2.20;;;;;;;6.64;100.00;103243.00;2092323;28;20195;-67
2023/12/16 03:18:36;;;;;;;3.37;2.00;;;;;;;6.28;100.00;103205.19;2097789;28;20176;-68
2023/12/16 03:19:36;;;;;;;3.63;2.03;;;;;;;6.59;100.00;103248.72;2097796;28;20662;-68
2023/12/16 03:20:37;;;;;;;3.60;2.37;;;;;;;6.60;100.00;103248.41;2098075;28;20183;-68
2023/12/16 03:21:37;;;;;;;3.70;2.33;;;;;;;6.57;100.00;103254.59;2090105;28;20673;-68
2023/12/16 03:22:38;;;;;;;4.23;2.37;;;;;;;6.62;100.00;103253.56;2089063;28;20203;-68
2023/12/16 03:23:39;;;;;;;3.43;2.10;;;;;;;6.62;100.00;103259.88;2095329;28;20254;-68
2023/12/16 03:24:39;;;;;;;3.73;2.10;;;;;;;6.64;100.00;103259.53;2097809;28;20178;-67
2023/12/16 03:25:42;;;;;;;4.23;2.10;;;;;;;6.56;100.00;103252.97;2094382;28;20441;-68
2023/12/16 03:26:43;;;;;;;3.30;2.23;;;;;;;6.15;100.00;103191.75;2094573;28;20659;-68
2023/12/16 03:27:44;;;;;;;3.63;2.10;;;;;;;6.65;100.00;103264.72;2089774;28;20850;-68
2023/12/16 03:28:44;;;;;;;4.13;2.30;;;;;;;6.70;100.00;103263.66;2097202;28;20653;-68
2023/12/16 03:29:44;;;;;;;4.13;2.23;;;;;;;6.69;100.00;103264.81;2089817;28;20180;-67
2023/12/16 03:30:45;;;;;;;4.10;2.23;;;;;;;6.70;100.00;103264.50;2096883;28;20206;-68
2023/12/16 03:31:45;;;;;;;3.37;2.07;;;;;;;5.91;100.00;103142.94;2091706;28;20190;-67
2023/12/16 03:32:46;;;;;;;4.63;2.80;;;;;;;6.74;100.00;103273.69;2094055;28;20198;-68
2023/12/16 03:33:46;;;;;;;4.07;2.30;;;;;;;6.72;100.00;103266.91;2097804;28;20183;-68
2023/12/16 03:34:47;;;;;;;3.00;1.90;;;;;;;6.74;100.00;103270.13;2097565;28;20211;-68
2023/12/16 03:35:48;;;;;;;3.13;2.07;;;;;;;6.75;100.00;103272.53;2097779;28;20186;-68
2023/12/16 03:36:48;;;;;;;3.23;2.13;;;;;;;6.75;100.00;103269.78;2097666;28;20206;-68
2023/12/16 03:37:49;;;;;;;2.83;1.87;;;;;;;6.61;100.00;103269.28;2097510;28;20202;-68
2023/12/16 03:38:52;;;;;;;4.13;2.40;;;;;;;6.15;100.00;103214.56;2090286;28;20191;-68
2023/12/16 03:39:53;;;;;;;3.53;2.50;;;;;;;6.52;100.00;103271.34;2096256;28;20546;-68
2023/12/16 03:40:54;;;;;;;4.17;2.50;;;;;;;6.50;100.00;103273.63;2097779;28;20247;-67
2023/12/16 03:41:55;;;;;;;4.10;2.20;;;;;;;6.46;100.00;103280.97;2097679;28;20438;-67
2023/12/16 03:42:56;;;;;;;4.33;2.53;;;;;;;6.47;100.00;103282.56;2097067;28;20190;-68
2023/12/16 03:43:57;;;;;;;4.50;2.50;;;;;;;6.45;100.00;103265.59;2095310;28;20196;-67
2023/12/16 03:44:58;;;;;;;3.67;2.40;;;;;;;6.52;100.00;103279.59;2089203;28;20413;-67
2023/12/16 03:45:58;;;;;;;3.53;2.47;;;;;;;6.54;100.00;103287.53;2089348;28;20209;-67
2023/12/16 03:46:59;;;;;;;3.27;2.17;;;;;;;6.58;100.00;103281.00;2097700;28;20468;-68
2023/12/16 03:47:59;;;;;;;4.13;2.57;;;;;;;6.58;100.00;103286.53;2089923;28;20210;-68
2023/12/16 03:49:00;;;;;;;4.63;2.50;;;;;;;6.61;100.00;103287.78;2089541;28;20221;-68
2023/12/16 03:50:00;;;;;;;5.07;3.00;;;;;;;6.63;100.00;103289.06;2089247;28;20188;-68
2023/12/16 03:51:01;;;;;;;3.43;2.30;;;;;;;6.63;100.00;103285.50;2089478;28;20226;-68
2023/12/16 03:52:02;;;;;;;4.27;2.87;;;;;;;6.26;100.00;103242.47;2091394;28;20223;-68
2023/12/16 03:53:02;;;;;;;2.73;2.20;;;;;;;5.97;100.00;103209.56;2097628;28;20178;-67
2023/12/16 03:54:03;;;;;;;3.80;2.43;;;;;;;6.55;100.00;103283.63;2097603;28;20265;-67
2023/12/16 03:55:04;;;;;;;4.80;3.10;;;;;;;6.53;100.00;103285.94;2089530;28;20184;-67
2023/12/16 03:56:05;;;;;;;5.78;3.13;;;;;;;6.05;100.00;103214.19;2096608;28;20950;-67
2023/12/16 03:57:05;;;;;;;4.47;2.90;;;;;;;6.52;100.00;103296.13;2091291;28;20635;-67
2023/12/16 03:58:06;;;;;;;5.00;3.07;;;;;;;6.52;100.00;103295.34;2093613;28;20185;-67
2023/12/16 03:59:07;;;;;;;4.83;3.00;;;;;;;6.48;100.00;103300.72;2097692;28;20213;-67
2023/12/16 04:00:11;;;;;;;4.40;2.70;;;;;;;6.02;100.00;103223.94;2094661;28;20450;-67
2023/12/16 04:01:13;;;;;;;5.23;2.90;;;;;;;6.38;100.00;103309.41;2091480;28;20252;-67
2023/12/16 04:02:13;;;;;;;5.07;3.33;;;;;;;5.72;100.00;103207.81;2096350;28;20519;-68
2023/12/16 04:03:14;;;;;;;5.40;2.87;;;;;;;6.35;100.00;103307.34;2089201;28;20183;-68
2023/12/16 04:04:15;;;;;;;5.27;2.83;;;;;;;6.35;100.00;103310.09;2089190;28;20183;-67
2023/12/16 04:05:15;;;;;;;5.13;3.07;;;;;;;6.31;100.00;103309.16;2088635;28;20476;-67
2023/12/16 04:06:16;;;;;;;5.73;3.70;;;;;;;6.34;100.00;103318.69;2094563;28;20726;-67
2023/12/16 04:07:16;;;;;;;5.87;3.13;;;;;;;6.18;100.00;103302.00;2097406;28;20203;-67
2023/12/16 04:08:17;;;;;;;4.97;2.90;;;;;;;6.36;100.00;103314.44;2093301;28;20191;-67
2023/12/16 04:09:17;;;;;;;5.23;2.83;;;;;;;6.34;100.00;103319.50;2089481;28;20407;-67
2023/12/16 04:10:18;;;;;;;5.43;3.33;;;;;;;6.33;100.00;103306.88;2089800;28;20724;-67
2023/12/16 04:11:18;;;;;;;5.57;3.07;;;;;;;6.26;100.00;103306.59;2096636;28;20574;-67
2023/12/16 04:12:19;;;;;;;5.73;3.17;;;;;;;6.23;100.00;103318.31;2097359;28;20209;-67
2023/12/16 04:13:19;;;;;;;5.63;3.37;;;;;;;5.77;100.00;103243.41;2097362;28;20189;-67
2023/12/16 04:14:20;;;;;;;4.83;3.00;;;;;;;6.24;100.00;103321.84;2097339;28;20553;-68
2023/12/16 04:15:21;;;;;;;7.10;3.20;;;;;;;6.22;100.00;103315.91;2096843;28;20683;-68
2023/12/16 04:16:21;;;;;;;5.57;3.23;;;;;;;6.14;100.00;103314.81;2096557;28;21008;-67
2023/12/16 04:17:22;;;;;;;5.47;3.30;;;;;;;6.12;100.00;103313.56;2096853;28;20189;-67
2023/12/16 04:18:23;;;;;;;6.60;3.10;;;;;;;6.16;100.00;103317.25;2095196;28;20190;-67
2023/12/16 04:19:24;;;;;;;5.17;3.23;;;;;;;6.12;100.00;103328.13;2089788;28;20202;-67
2023/12/16 04:20:26;;;;;;;5.57;3.13;;;;;;;6.02;100.00;103328.53;2097632;28;20416;-67
2023/12/16 04:21:26;;;;;;;6.23;3.50;;;;;;;6.05;100.00;103324.31;2089515;28;20272;-68
2023/12/16 04:22:27;;;;;;;6.20;3.37;;;;;;;6.06;100.00;103329.47;2088892;28;20459;-68
2023/12/16 04:23:28;;;;;;;5.83;3.67;;;;;;;5.99;100.00;103334.72;2088683;28;20184;-67
2023/12/16 04:24:28;;;;;;;5.40;3.10;;;;;;;5.99;100.00;103323.69;2088334;28;20191;-67
2023/12/16 04:25:29;;;;;;;5.67;3.40;;;;;;;6.02;100.00;103334.06;2092580;28;20436;-67
2023/12/16 04:26:29;;;;;;;6.03;3.47;;;;;;;6.06;100.00;103334.97;2094427;28;20248;-68
2023/12/16 04:27:30;;;;;;;5.53;3.20;;;;;;;5.92;100.00;103333.63;2088859;28;20614;-67
2023/12/16 04:28:31;;;;;;;6.07;3.80;;;;;;;5.91;100.00;103338.34;2096931;28;20711;-67
2023/12/16 04:29:31;;;;;;;5.93;2.93;;;;;;;5.89;100.00;103337.06;2089406;28;20307;-67
2023/12/16 04:30:32;;;;;;;6.13;4.00;;;;;;;5.92;100.00;103339.97;2095531;28;20334;-67
2023/12/16 04:31:33;;;;;;;5.75;3.50;;;;;;;5.79;100.00;103310.72;2096787;28;20189;-67
2023/12/16 04:32:33;;;;;;;5.57;3.37;;;;;;;5.95;100.00;103333.78;2091948;28;20188;-67
2023/12/16 04:33:34;;;;;;;5.07;3.17;;;;;;;5.73;100.00;103291.97;2093020;28;20234;-67
2023/12/16 04:34:34;;;;;;;5.73;3.20;;;;;;;5.93;100.00;103324.22;2094580;28;20560;-67
2023/12/16 04:35:35;;;;;;;4.57;3.00;;;;;;;6.01;100.00;103345.41;2089139;28;20229;-67
2023/12/16 04:36:35;;;;;;;5.07;3.30;;;;;;;6.02;100.00;103345.06;2089006;28;20270;-67
2023/12/16 04:37:36;;;;;;;5.23;2.83;;;;;;;6.03;100.00;103343.91;2088764;28;20217;-67
2023/12/16 04:38:36;;;;;;;4.97;3.10;;;;;;;6.06;100.00;103345.19;2096557;28;20185;-67
2023/12/16 04:39:38;;;;;;;4.67;2.87;;;;;;;6.11;100.00;103343.03;2097316;28;20196;-67
2023/12/16 04:40:39;;;;;;;5.07;3.10;;;;;;;6.12;100.00;103343.84;2096847;28;20612;-67
2023/12/16 04:41:39;;;;;;;6.67;3.40;;;;;;;5.53;100.00;103268.03;2097301;28;20182;-67
2023/12/16 04:42:41;;;;;;;4.80;2.93;;;;;;;6.06;100.00;103342.44;2093190;28;21051;-67